createdAt,value
2022-11-10T00:04:31.731Z,10.26
2022-11-10T00:09:52.765Z,10.28
2022-11-10T00:15:31.262Z,10.62
2022-11-10T00:20:51.605Z,10.84
2022-11-10T00:26:14.499Z,11.08
2022-11-10T00:31:34.732Z,11.15
2022-11-10T00:36:55.024Z,11.18
2022-11-10T00:42:15.228Z,11.12
2022-11-10T00:47:35.629Z,11.04
2022-11-10T00:52:55.911Z,10.90
2022-11-10T00:58:16.499Z,10.74
2022-11-10T01:03:37.114Z,10.62
2022-11-10T01:08:57.146Z,10.62
2022-11-10T01:14:17.480Z,10.63
2022-11-10T01:19:37.955Z,10.84
2022-11-10T01:24:58.120Z,10.87
2022-11-10T01:30:19.149Z,10.94
2022-11-10T01:35:40.325Z,10.94
2022-11-10T01:41:01.218Z,10.98
2022-11-10T01:46:21.505Z,10.84
2022-11-10T02:12:03.348Z,10.78
2022-11-10T02:17:23.730Z,10.79
2022-11-10T02:22:44.472Z,10.80
2022-11-10T02:28:04.568Z,10.71
2022-11-10T02:33:25.130Z,10.63
2022-11-10T02:38:45.335Z,10.54
2022-11-10T02:44:06.445Z,10.52
2022-11-10T02:49:26.453Z,10.45
2022-11-10T02:54:46.653Z,10.35
2022-11-10T03:00:08.049Z,10.33
2022-11-10T03:05:31.744Z,10.29
2022-11-10T03:10:56.505Z,10.22
2022-11-10T03:16:16.795Z,10.26
2022-11-10T03:21:36.714Z,10.16
2022-11-10T03:26:57.039Z,10.08
2022-11-10T03:32:17.230Z,10.08
2022-11-10T03:37:37.651Z,10.06
2022-11-10T03:42:57.847Z,10.12
2022-11-10T03:48:18.163Z,10.09
2022-11-10T03:53:38.441Z,10.01
2022-11-10T03:58:58.923Z,9.99
2022-11-10T04:04:37.633Z,10.05
2022-11-10T04:09:58.075Z,10.03
2022-11-10T04:15:37.008Z,9.88
2022-11-10T04:20:59.294Z,9.82
2022-11-10T04:26:28.624Z,9.73
2022-11-10T04:31:49.013Z,9.53
2022-11-10T04:37:09.215Z,9.43
2022-11-10T04:42:29.521Z,9.38
2022-11-10T04:47:49.787Z,9.33
2022-11-10T04:53:10.050Z,9.30
2022-11-10T04:58:30.374Z,9.57
2022-11-10T05:03:51.441Z,9.72
2022-11-10T05:09:11.521Z,9.89
2022-11-10T05:14:31.975Z,9.82
2022-11-10T05:19:52.194Z,9.80
2022-11-10T05:25:12.996Z,9.84
2022-11-10T05:30:33.222Z,9.89
2022-11-10T05:35:53.202Z,9.98
2022-11-10T05:41:13.609Z,10.06
2022-11-10T05:46:33.993Z,10.07
2022-11-10T05:51:54.373Z,10.09
2022-11-10T05:57:14.765Z,10.18
2022-11-10T06:02:34.744Z,10.20
2022-11-10T06:07:55.405Z,10.21
2022-11-10T06:14:12.482Z,10.09
2022-11-10T06:19:32.813Z,9.97
2022-11-10T06:24:53.093Z,9.88
2022-11-10T06:30:14.031Z,9.81
2022-11-10T06:35:34.609Z,9.78
2022-11-10T06:40:54.688Z,9.85
2022-11-10T06:46:15.162Z,9.87
2022-11-10T06:51:35.361Z,9.94
2022-11-10T06:56:55.726Z,10.06
2022-11-10T07:02:16.124Z,10.25
2022-11-10T07:07:36.439Z,10.36
2022-11-10T07:13:00.978Z,10.46
2022-11-10T07:18:20.954Z,10.53
2022-11-10T07:23:42.096Z,10.59
2022-11-10T07:29:02.017Z,10.64
2022-11-10T07:34:22.328Z,10.73
2022-11-10T07:39:42.602Z,10.82
2022-11-10T07:45:03.326Z,10.90
2022-11-10T07:50:23.540Z,10.96
2022-11-10T07:55:45.274Z,11.01
2022-11-10T08:01:05.545Z,11.06
2022-11-10T08:06:27.667Z,11.13
2022-11-10T08:11:48.736Z,11.16
2022-11-10T08:17:09.173Z,11.18
2022-11-10T08:22:29.367Z,11.26
2022-11-10T08:27:49.676Z,11.34
2022-11-10T08:33:11.656Z,11.39
2022-11-10T08:38:31.726Z,11.47
2022-11-10T08:43:52.079Z,11.55
2022-11-10T08:49:12.209Z,11.63
2022-11-10T08:54:32.576Z,11.70
2022-11-10T08:59:52.862Z,11.81
2022-11-10T09:05:13.147Z,11.88
2022-11-10T09:10:35.934Z,12.18
2022-11-10T09:15:56.851Z,12.56
2022-11-10T09:21:18.131Z,12.66
2022-11-10T09:26:38.931Z,12.46
2022-11-10T09:31:58.889Z,12.22
2022-11-10T09:37:19.146Z,12.08
2022-11-10T09:42:42.902Z,12.07
2022-11-10T09:48:32.092Z,12.06
2022-11-10T09:53:58.486Z,12.04
2022-11-10T09:59:27.768Z,12.13
2022-11-10T10:05:12.786Z,12.18
2022-11-10T10:10:38.158Z,12.29
2022-11-10T10:16:10.489Z,12.45
2022-11-10T10:21:50.545Z,12.49
2022-11-10T10:27:15.990Z,12.59
2022-11-10T10:32:36.381Z,12.66
2022-11-10T10:37:57.715Z,12.62
2022-11-10T10:43:18.558Z,12.52
2022-11-10T10:48:38.864Z,12.46
2022-11-10T10:53:58.918Z,12.44
2022-11-10T10:59:21.967Z,12.50
2022-11-10T11:04:42.351Z,12.52
2022-11-10T11:10:03.076Z,12.59
2022-11-10T11:15:30.485Z,12.77
2022-11-10T11:21:22.394Z,12.79
2022-11-10T11:26:54.803Z,12.83
2022-11-10T11:32:54.239Z,12.93
2022-11-10T11:38:41.486Z,12.92
2022-11-10T11:44:16.810Z,12.95
2022-11-10T11:50:00.454Z,13.06
2022-11-10T11:55:33.750Z,13.10
2022-11-10T12:01:28.537Z,13.07
2022-11-10T12:07:00.275Z,13.20
2022-11-10T12:12:33.520Z,13.51
2022-11-10T12:18:12.300Z,13.76
2022-11-10T12:23:41.617Z,13.87
2022-11-10T12:29:20.372Z,13.63
2022-11-10T12:34:50.920Z,13.49
2022-11-10T12:40:19.817Z,13.33
2022-11-10T12:45:44.454Z,13.20
2022-11-10T12:51:13.511Z,13.18
2022-11-10T12:56:47.316Z,13.25
2022-11-10T13:02:27.627Z,13.24
2022-11-10T13:07:49.429Z,13.21
2022-11-10T13:13:15.176Z,13.18
2022-11-10T13:18:51.894Z,13.14
2022-11-10T13:24:21.096Z,13.16
2022-11-10T13:29:47.098Z,13.17
2022-11-10T13:35:28.954Z,13.10
2022-11-10T13:40:48.961Z,13.25
2022-11-10T13:46:09.516Z,13.42
2022-11-10T13:52:06.292Z,13.45
2022-11-10T13:57:30.406Z,13.55
2022-11-10T14:02:58.235Z,13.54
2022-11-10T14:08:21.186Z,13.53
2022-11-10T14:13:45.450Z,13.58
2022-11-10T14:19:32.560Z,13.56
2022-11-10T14:24:54.147Z,13.51
2022-11-10T14:30:27.355Z,13.38
2022-11-10T14:35:53.315Z,13.18
2022-11-10T14:41:19.413Z,13.09
2022-11-10T14:46:39.671Z,12.93
2022-11-10T14:52:00.422Z,12.74
2022-11-10T14:57:20.748Z,12.50
2022-11-10T15:02:41.407Z,12.38
2022-11-10T15:08:03.665Z,12.28
2022-11-10T15:13:26.925Z,12.23
2022-11-10T15:18:49.080Z,12.11
2022-11-10T15:24:10.701Z,11.99
2022-11-10T15:29:31.046Z,11.93
2022-11-10T15:34:53.019Z,11.81
2022-11-10T15:40:32.457Z,11.72
2022-11-10T15:45:59.015Z,11.80
2022-11-10T15:51:25.716Z,11.75
2022-11-10T15:56:46.541Z,11.67
2022-11-10T16:02:20.804Z,11.61
2022-11-10T16:07:40.818Z,11.55
2022-11-10T16:13:00.963Z,11.45
2022-11-10T16:18:24.190Z,11.41
2022-11-10T16:23:44.548Z,11.36
2022-11-10T16:29:10.882Z,11.29
2022-11-10T16:34:31.521Z,11.17
2022-11-10T16:39:51.449Z,11.06
2022-11-10T16:45:17.084Z,11.02
2022-11-10T16:50:37.789Z,10.98
2022-11-10T16:55:58.661Z,10.89
2022-11-10T17:01:21.546Z,10.87
2022-11-10T17:06:43.297Z,10.77
2022-11-10T17:12:03.810Z,10.75
2022-11-10T17:17:24.441Z,10.70
2022-11-10T17:22:44.653Z,10.66
2022-11-10T17:28:05.031Z,10.59
2022-11-10T17:33:25.581Z,10.50
2022-11-10T17:38:46.339Z,10.43
2022-11-10T17:44:14.549Z,10.40
2022-11-10T17:49:34.930Z,10.35
2022-11-10T17:54:55.370Z,10.30
2022-11-10T18:00:16.982Z,10.22
2022-11-10T18:05:38.474Z,10.14
2022-11-10T18:11:00.466Z,10.01
2022-11-10T18:16:20.862Z,10.05
2022-11-10T18:21:41.056Z,9.91
2022-11-10T18:27:01.432Z,9.78
2022-11-10T18:32:23.095Z,9.64
2022-11-10T18:37:43.513Z,9.51
2022-11-10T18:43:07.455Z,9.43
2022-11-10T18:48:31.125Z,9.37
2022-11-10T18:53:54.994Z,9.29
2022-11-10T18:59:15.408Z,9.25
2022-11-10T19:04:35.631Z,9.27
2022-11-10T19:09:56.050Z,9.36
2022-11-10T19:15:16.355Z,9.40
2022-11-10T19:20:37.423Z,9.39
2022-11-10T19:26:01.878Z,9.42
2022-11-10T19:31:23.376Z,9.31
2022-11-10T19:36:43.973Z,9.42
2022-11-10T19:42:04.455Z,9.39
2022-11-10T19:47:25.167Z,9.44
2022-11-10T19:52:45.272Z,9.39
2022-11-10T19:58:05.669Z,9.32
2022-11-10T20:03:26.155Z,9.29
2022-11-10T20:08:46.904Z,9.19
2022-11-10T20:14:07.041Z,9.16
2022-11-10T20:19:27.402Z,9.12
2022-11-10T20:24:51.249Z,9.10
2022-11-10T20:30:11.891Z,9.09
2022-11-10T20:35:32.658Z,9.09
2022-11-10T20:41:02.289Z,9.10
2022-11-10T20:46:48.444Z,9.09
2022-11-10T20:52:03.371Z,9.11
2022-11-10T20:57:23.652Z,9.16
2022-11-10T21:02:44.118Z,9.22
2022-11-10T21:08:04.407Z,9.12
2022-11-10T21:13:25.575Z,9.08
2022-11-10T21:18:45.997Z,8.94
2022-11-10T21:24:07.513Z,8.96
2022-11-10T21:29:27.547Z,8.98
2022-11-10T21:34:48.023Z,8.99
2022-11-10T21:40:08.531Z,8.88
2022-11-10T21:45:28.937Z,8.69
2022-11-10T21:50:49.187Z,8.64
2022-11-10T21:56:10.903Z,8.56
2022-11-10T22:01:31.037Z,8.56
2022-11-10T22:07:11.763Z,8.52
2022-11-10T22:12:50.347Z,8.43
2022-11-10T22:18:34.314Z,8.32
2022-11-10T22:24:13.389Z,8.58
2022-11-10T22:29:33.903Z,8.73
2022-11-10T22:34:53.997Z,8.70
2022-11-10T22:40:32.724Z,8.63
2022-11-10T22:45:53.033Z,8.37
2022-11-10T22:51:13.186Z,8.26
2022-11-10T22:56:33.605Z,8.24
2022-11-10T23:01:56.056Z,8.16
2022-11-10T23:07:16.542Z,8.08
2022-11-10T23:12:36.840Z,8.07
2022-11-10T23:18:01.106Z,7.97
2022-11-10T23:23:24.654Z,7.92
2022-11-10T23:28:45.599Z,7.88
2022-11-10T23:34:06.222Z,7.86
2022-11-10T23:39:27.031Z,7.77
2022-11-10T23:44:47.335Z,7.71
2022-11-10T23:50:08.167Z,7.67
2022-11-10T23:55:28.401Z,7.57
